Terminal Aerodrome Forecast
Issued by NWS

Home | Current Version | Previous Version | Text Only | Print | Product List | Glossary On
Versions: 1 2 3 4 5 6 7 8 9 10 11 12 13 14 15 16 17
000
FTUS43 KIWX 192300 RRA
TAFSBN
TAF
KSBN 192339Z 2000/2024 18010KT P6SM SCT150 BKN250
     FM201300 20012G20KT P6SM SCT040 BKN080
     FM202200 22014G24KT P6SM VCTS BKN040CB=

USA.gov is the U.S. government's official web portal to all federal, state and local government web resources and services.